sensor_id;sensor_type;location;lat;lon;timestamp;P1;durP1;ratioP1;P2;durP2;ratioP2
7833;SDS011;3962;42.696;23.354;2023-05-29T00:00:14;6.53;;;5.30;;
7833;SDS011;3962;42.696;23.354;2023-05-29T00:05:31;9.67;;;6.07;;
7833;SDS011;3962;42.696;23.354;2023-05-29T00:08:01;7.83;;;4.90;;
7833;SDS011;3962;42.696;23.354;2023-05-29T00:13:27;7.90;;;5.03;;
7833;SDS011;3962;42.696;23.354;2023-05-29T00:16:01;6.67;;;5.40;;
7833;SDS011;3962;42.696;23.354;2023-05-29T00:18:30;7.83;;;5.47;;
7833;SDS011;3962;42.696;23.354;2023-05-29T00:23:36;7.40;;;5.30;;
7833;SDS011;3962;42.696;23.354;2023-05-29T00:26:05;12.73;;;5.33;;
7833;SDS011;3962;42.696;23.354;2023-05-29T00:28:33;9.30;;;5.93;;
7833;SDS011;3962;42.696;23.354;2023-05-29T00:31:01;9.77;;;5.53;;
7833;SDS011;3962;42.696;23.354;2023-05-29T00:36:04;7.63;;;5.50;;
7833;SDS011;3962;42.696;23.354;2023-05-29T00:38:34;9.43;;;5.70;;
7833;SDS011;3962;42.696;23.354;2023-05-29T00:41:03;11.77;;;5.60;;
7833;SDS011;3962;42.696;23.354;2023-05-29T00:43:31;8.90;;;5.83;;
7833;SDS011;3962;42.696;23.354;2023-05-29T00:48:35;9.13;;;6.23;;
7833;SDS011;3962;42.696;23.354;2023-05-29T00:51:06;9.13;;;6.20;;
7833;SDS011;3962;42.696;23.354;2023-05-29T00:58:43;9.23;;;6.03;;
7833;SDS011;3962;42.696;23.354;2023-05-29T01:04:02;7.53;;;5.83;;
7833;SDS011;3962;42.696;23.354;2023-05-29T01:06:31;7.73;;;6.63;;
7833;SDS011;3962;42.696;23.354;2023-05-29T01:11:32;10.27;;;6.50;;
7833;SDS011;3962;42.696;23.354;2023-05-29T01:16:45;8.53;;;6.20;;
7833;SDS011;3962;42.696;23.354;2023-05-29T01:19:23;11.30;;;6.43;;
7833;SDS011;3962;42.696;23.354;2023-05-29T01:22:08;10.07;;;5.97;;
7833;SDS011;3962;42.696;23.354;2023-05-29T01:24:45;8.37;;;5.93;;
7833;SDS011;3962;42.696;23.354;2023-05-29T01:27:17;8.87;;;6.07;;
7833;SDS011;3962;42.696;23.354;2023-05-29T01:29:47;10.33;;;7.00;;
7833;SDS011;3962;42.696;23.354;2023-05-29T01:35:42;12.10;;;7.03;;
7833;SDS011;3962;42.696;23.354;2023-05-29T01:38:10;11.80;;;6.77;;
7833;SDS011;3962;42.696;23.354;2023-05-29T01:40:40;9.47;;;6.30;;
7833;SDS011;3962;42.696;23.354;2023-05-29T01:43:19;9.40;;;6.40;;
7833;SDS011;3962;42.696;23.354;2023-05-29T01:48:40;10.77;;;6.50;;
7833;SDS011;3962;42.696;23.354;2023-05-29T01:54:08;8.43;;;5.73;;
7833;SDS011;3962;42.696;23.354;2023-05-29T01:56:43;8.53;;;6.43;;
7833;SDS011;3962;42.696;23.354;2023-05-29T02:01:45;12.83;;;6.40;;
7833;SDS011;3962;42.696;23.354;2023-05-29T02:07:13;11.77;;;6.70;;
7833;SDS011;3962;42.696;23.354;2023-05-29T02:09:40;9.57;;;6.60;;
7833;SDS011;3962;42.696;23.354;2023-05-29T02:12:08;8.83;;;7.37;;
7833;SDS011;3962;42.696;23.354;2023-05-29T02:14:43;10.73;;;7.50;;
7833;SDS011;3962;42.696;23.354;2023-05-29T02:17:12;10.77;;;7.43;;
7833;SDS011;3962;42.696;23.354;2023-05-29T02:22:17;11.13;;;6.87;;
7833;SDS011;3962;42.696;23.354;2023-05-29T02:30:08;3.20;;;2.40;;
7833;SDS011;3962;42.696;23.354;2023-05-29T02:35:43;11.27;;;6.70;;
7833;SDS011;3962;42.696;23.354;2023-05-29T02:38:12;7.93;;;5.70;;
7833;SDS011;3962;42.696;23.354;2023-05-29T02:40:42;11.03;;;6.27;;
7833;SDS011;3962;42.696;23.354;2023-05-29T02:43:18;11.77;;;6.97;;
7833;SDS011;3962;42.696;23.354;2023-05-29T02:45:50;15.07;;;7.47;;
7833;SDS011;3962;42.696;23.354;2023-05-29T02:48:27;10.37;;;7.10;;
7833;SDS011;3962;42.696;23.354;2023-05-29T02:56:13;14.20;;;6.80;;
7833;SDS011;3962;42.696;23.354;2023-05-29T02:58:41;8.87;;;6.73;;
7833;SDS011;3962;42.696;23.354;2023-05-29T03:01:17;11.93;;;7.10;;
7833;SDS011;3962;42.696;23.354;2023-05-29T03:09:09;10.87;;;7.50;;
7833;SDS011;3962;42.696;23.354;2023-05-29T03:11:52;15.97;;;6.80;;
7833;SDS011;3962;42.696;23.354;2023-05-29T03:17:00;9.67;;;7.10;;
7833;SDS011;3962;42.696;23.354;2023-05-29T03:19:33;10.47;;;7.00;;
7833;SDS011;3962;42.696;23.354;2023-05-29T03:22:09;13.90;;;7.67;;
7833;SDS011;3962;42.696;23.354;2023-05-29T03:24:46;13.43;;;7.20;;
7833;SDS011;3962;42.696;23.354;2023-05-29T03:27:13;9.63;;;7.30;;
7833;SDS011;3962;42.696;23.354;2023-05-29T03:32:36;11.03;;;7.27;;
7833;SDS011;3962;42.696;23.354;2023-05-29T03:35:14;9.43;;;6.83;;
7833;SDS011;3962;42.696;23.354;2023-05-29T03:37:53;10.57;;;7.00;;
7833;SDS011;3962;42.696;23.354;2023-05-29T03:40:25;11.60;;;6.77;;
7833;SDS011;3962;42.696;23.354;2023-05-29T03:43:00;13.63;;;7.40;;
7833;SDS011;3962;42.696;23.354;2023-05-29T03:45:29;23.03;;;11.07;;
7833;SDS011;3962;42.696;23.354;2023-05-29T03:47:57;16.90;;;9.63;;
7833;SDS011;3962;42.696;23.354;2023-05-29T03:50:41;12.83;;;8.07;;
7833;SDS011;3962;42.696;23.354;2023-05-29T03:53:16;14.87;;;8.80;;
7833;SDS011;3962;42.696;23.354;2023-05-29T03:55:43;10.67;;;6.83;;
7833;SDS011;3962;42.696;23.354;2023-05-29T03:58:10;14.17;;;8.10;;
7833;SDS011;3962;42.696;23.354;2023-05-29T04:00:42;12.53;;;7.60;;
7833;SDS011;3962;42.696;23.354;2023-05-29T04:03:12;13.03;;;7.80;;
7833;SDS011;3962;42.696;23.354;2023-05-29T04:05:40;9.10;;;7.07;;
7833;SDS011;3962;42.696;23.354;2023-05-29T04:08:06;11.40;;;7.20;;
7833;SDS011;3962;42.696;23.354;2023-05-29T04:10:34;13.90;;;7.77;;
7833;SDS011;3962;42.696;23.354;2023-05-29T04:13:02;11.10;;;7.43;;
7833;SDS011;3962;42.696;23.354;2023-05-29T04:18:20;14.60;;;6.60;;
7833;SDS011;3962;42.696;23.354;2023-05-29T04:20:47;7.67;;;6.50;;
7833;SDS011;3962;42.696;23.354;2023-05-29T04:23:13;9.97;;;7.13;;
7833;SDS011;3962;42.696;23.354;2023-05-29T04:25:40;11.73;;;5.63;;
7833;SDS011;3962;42.696;23.354;2023-05-29T04:28:09;11.03;;;7.20;;
7833;SDS011;3962;42.696;23.354;2023-05-29T04:30:35;12.27;;;7.80;;
7833;SDS011;3962;42.696;23.354;2023-05-29T04:33:04;9.30;;;6.67;;
7833;SDS011;3962;42.696;23.354;2023-05-29T04:35:32;16.43;;;9.33;;
7833;SDS011;3962;42.696;23.354;2023-05-29T04:38:00;22.30;;;10.93;;
7833;SDS011;3962;42.696;23.354;2023-05-29T04:40:27;21.87;;;12.00;;
7833;SDS011;3962;42.696;23.354;2023-05-29T04:42:53;15.47;;;9.67;;
7833;SDS011;3962;42.696;23.354;2023-05-29T04:45:20;25.83;;;10.67;;
7833;SDS011;3962;42.696;23.354;2023-05-29T04:47:47;17.57;;;10.57;;
7833;SDS011;3962;42.696;23.354;2023-05-29T04:50:15;28.73;;;11.43;;
7833;SDS011;3962;42.696;23.354;2023-05-29T04:52:44;16.60;;;9.90;;
7833;SDS011;3962;42.696;23.354;2023-05-29T04:55:11;26.90;;;11.17;;
7833;SDS011;3962;42.696;23.354;2023-05-29T04:57:38;22.50;;;10.97;;
7833;SDS011;3962;42.696;23.354;2023-05-29T05:00:05;21.40;;;11.40;;
7833;SDS011;3962;42.696;23.354;2023-05-29T05:02:34;27.37;;;11.50;;
7833;SDS011;3962;42.696;23.354;2023-05-29T05:05:02;18.50;;;11.27;;
7833;SDS011;3962;42.696;23.354;2023-05-29T05:07:28;29.77;;;11.10;;
7833;SDS011;3962;42.696;23.354;2023-05-29T05:09:57;20.60;;;10.77;;
7833;SDS011;3962;42.696;23.354;2023-05-29T05:12:23;16.40;;;11.10;;
7833;SDS011;3962;42.696;23.354;2023-05-29T05:14:50;24.87;;;11.50;;
7833;SDS011;3962;42.696;23.354;2023-05-29T05:17:17;23.67;;;10.93;;
7833;SDS011;3962;42.696;23.354;2023-05-29T05:19:44;22.73;;;11.23;;
7833;SDS011;3962;42.696;23.354;2023-05-29T05:22:11;21.77;;;11.93;;
7833;SDS011;3962;42.696;23.354;2023-05-29T05:24:37;22.23;;;10.40;;
7833;SDS011;3962;42.696;23.354;2023-05-29T05:27:06;25.00;;;12.73;;
7833;SDS011;3962;42.696;23.354;2023-05-29T05:29:32;25.40;;;12.03;;
7833;SDS011;3962;42.696;23.354;2023-05-29T05:31:59;27.27;;;12.57;;
7833;SDS011;3962;42.696;23.354;2023-05-29T05:34:26;31.97;;;14.07;;
7833;SDS011;3962;42.696;23.354;2023-05-29T05:36:53;29.53;;;12.20;;
7833;SDS011;3962;42.696;23.354;2023-05-29T05:39:20;16.20;;;9.13;;
7833;SDS011;3962;42.696;23.354;2023-05-29T05:41:47;16.63;;;10.00;;
7833;SDS011;3962;42.696;23.354;2023-05-29T05:44:17;18.40;;;10.50;;
7833;SDS011;3962;42.696;23.354;2023-05-29T05:46:44;20.97;;;10.23;;
7833;SDS011;3962;42.696;23.354;2023-05-29T05:49:11;18.17;;;9.40;;
7833;SDS011;3962;42.696;23.354;2023-05-29T05:51:38;23.60;;;9.00;;
7833;SDS011;3962;42.696;23.354;2023-05-29T05:54:04;13.70;;;8.10;;
7833;SDS011;3962;42.696;23.354;2023-05-29T05:56:31;15.50;;;7.03;;
7833;SDS011;3962;42.696;23.354;2023-05-29T05:58:58;11.80;;;7.13;;
7833;SDS011;3962;42.696;23.354;2023-05-29T06:01:27;10.63;;;6.53;;
7833;SDS011;3962;42.696;23.354;2023-05-29T06:03:53;13.83;;;6.60;;
7833;SDS011;3962;42.696;23.354;2023-05-29T06:06:21;11.43;;;6.63;;
7833;SDS011;3962;42.696;23.354;2023-05-29T06:08:47;10.23;;;6.70;;
7833;SDS011;3962;42.696;23.354;2023-05-29T06:11:15;10.77;;;6.13;;
7833;SDS011;3962;42.696;23.354;2023-05-29T06:13:42;8.10;;;5.83;;
7833;SDS011;3962;42.696;23.354;2023-05-29T06:16:09;9.13;;;5.80;;
7833;SDS011;3962;42.696;23.354;2023-05-29T06:18:38;10.67;;;5.77;;
7833;SDS011;3962;42.696;23.354;2023-05-29T06:21:05;8.97;;;5.23;;
7833;SDS011;3962;42.696;23.354;2023-05-29T06:23:32;7.57;;;5.93;;
7833;SDS011;3962;42.696;23.354;2023-05-29T06:26:01;8.27;;;5.60;;
7833;SDS011;3962;42.696;23.354;2023-05-29T06:28:28;11.23;;;5.60;;
7833;SDS011;3962;42.696;23.354;2023-05-29T06:30:55;11.27;;;6.73;;
7833;SDS011;3962;42.696;23.354;2023-05-29T06:33:22;10.83;;;5.70;;
7833;SDS011;3962;42.696;23.354;2023-05-29T06:35:50;10.03;;;4.83;;
7833;SDS011;3962;42.696;23.354;2023-05-29T06:38:20;13.23;;;6.07;;
7833;SDS011;3962;42.696;23.354;2023-05-29T06:40:47;9.03;;;3.70;;
7833;SDS011;3962;42.696;23.354;2023-05-29T06:43:14;8.97;;;4.80;;
7833;SDS011;3962;42.696;23.354;2023-05-29T06:45:41;10.93;;;5.07;;
7833;SDS011;3962;42.696;23.354;2023-05-29T06:48:09;6.27;;;4.13;;
7833;SDS011;3962;42.696;23.354;2023-05-29T06:50:35;8.13;;;4.97;;
7833;SDS011;3962;42.696;23.354;2023-05-29T06:53:03;8.40;;;4.93;;
7833;SDS011;3962;42.696;23.354;2023-05-29T06:55:30;7.97;;;4.83;;
7833;SDS011;3962;42.696;23.354;2023-05-29T06:57:57;3.07;;;2.17;;
7833;SDS011;3962;42.696;23.354;2023-05-29T07:00:24;5.23;;;2.90;;
7833;SDS011;3962;42.696;23.354;2023-05-29T07:02:51;5.13;;;2.90;;
7833;SDS011;3962;42.696;23.354;2023-05-29T07:05:17;7.83;;;3.80;;
7833;SDS011;3962;42.696;23.354;2023-05-29T07:07:44;7.17;;;3.67;;
7833;SDS011;3962;42.696;23.354;2023-05-29T07:10:13;2.80;;;2.27;;
7833;SDS011;3962;42.696;23.354;2023-05-29T07:12:39;2.87;;;2.30;;
7833;SDS011;3962;42.696;23.354;2023-05-29T07:15:06;2.90;;;2.13;;
7833;SDS011;3962;42.696;23.354;2023-05-29T07:17:34;3.87;;;2.77;;
7833;SDS011;3962;42.696;23.354;2023-05-29T07:20:01;4.07;;;2.70;;
7833;SDS011;3962;42.696;23.354;2023-05-29T07:22:27;4.77;;;3.10;;
7833;SDS011;3962;42.696;23.354;2023-05-29T07:24:54;6.17;;;3.40;;
7833;SDS011;3962;42.696;23.354;2023-05-29T07:27:22;4.07;;;3.13;;
7833;SDS011;3962;42.696;23.354;2023-05-29T07:29:49;7.50;;;3.50;;
7833;SDS011;3962;42.696;23.354;2023-05-29T07:32:16;3.40;;;2.80;;
7833;SDS011;3962;42.696;23.354;2023-05-29T07:34:43;3.73;;;2.93;;
7833;SDS011;3962;42.696;23.354;2023-05-29T07:37:11;4.93;;;3.53;;
7833;SDS011;3962;42.696;23.354;2023-05-29T07:39:38;3.80;;;3.10;;
7833;SDS011;3962;42.696;23.354;2023-05-29T07:42:04;6.33;;;2.63;;
7833;SDS011;3962;42.696;23.354;2023-05-29T07:44:33;5.50;;;2.77;;
7833;SDS011;3962;42.696;23.354;2023-05-29T07:47:00;5.23;;;2.83;;
7833;SDS011;3962;42.696;23.354;2023-05-29T07:49:27;4.20;;;2.43;;
7833;SDS011;3962;42.696;23.354;2023-05-29T07:51:53;4.23;;;2.90;;
7833;SDS011;3962;42.696;23.354;2023-05-29T07:54:20;4.13;;;2.77;;
7833;SDS011;3962;42.696;23.354;2023-05-29T07:56:48;4.30;;;3.00;;
7833;SDS011;3962;42.696;23.354;2023-05-29T07:59:15;6.67;;;3.10;;
7833;SDS011;3962;42.696;23.354;2023-05-29T08:01:43;3.57;;;2.50;;
7833;SDS011;3962;42.696;23.354;2023-05-29T08:04:10;4.23;;;2.70;;
7833;SDS011;3962;42.696;23.354;2023-05-29T08:06:37;3.13;;;2.23;;
7833;SDS011;3962;42.696;23.354;2023-05-29T08:09:07;3.20;;;2.57;;
7833;SDS011;3962;42.696;23.354;2023-05-29T08:11:35;6.80;;;2.90;;
7833;SDS011;3962;42.696;23.354;2023-05-29T08:14:02;3.97;;;2.83;;
7833;SDS011;3962;42.696;23.354;2023-05-29T08:16:29;4.43;;;3.17;;
7833;SDS011;3962;42.696;23.354;2023-05-29T08:18:57;3.73;;;2.80;;
7833;SDS011;3962;42.696;23.354;2023-05-29T08:21:24;3.10;;;2.80;;
7833;SDS011;3962;42.696;23.354;2023-05-29T08:23:51;8.57;;;3.10;;
7833;SDS011;3962;42.696;23.354;2023-05-29T08:26:18;5.50;;;3.87;;
7833;SDS011;3962;42.696;23.354;2023-05-29T08:28:46;5.70;;;3.37;;
7833;SDS011;3962;42.696;23.354;2023-05-29T08:31:12;5.57;;;3.27;;
7833;SDS011;3962;42.696;23.354;2023-05-29T08:33:39;6.20;;;3.37;;
7833;SDS011;3962;42.696;23.354;2023-05-29T08:36:07;3.00;;;2.60;;
7833;SDS011;3962;42.696;23.354;2023-05-29T08:38:35;5.07;;;3.30;;
7833;SDS011;3962;42.696;23.354;2023-05-29T08:41:03;4.30;;;2.73;;
7833;SDS011;3962;42.696;23.354;2023-05-29T08:43:32;3.53;;;2.53;;
7833;SDS011;3962;42.696;23.354;2023-05-29T08:45:59;7.23;;;3.30;;
7833;SDS011;3962;42.696;23.354;2023-05-29T08:48:28;6.03;;;2.70;;
7833;SDS011;3962;42.696;23.354;2023-05-29T08:50:56;4.13;;;2.47;;
7833;SDS011;3962;42.696;23.354;2023-05-29T08:53:25;3.30;;;2.67;;
7833;SDS011;3962;42.696;23.354;2023-05-29T08:55:52;6.07;;;3.20;;
7833;SDS011;3962;42.696;23.354;2023-05-29T08:58:21;3.40;;;2.90;;
7833;SDS011;3962;42.696;23.354;2023-05-29T09:00:48;3.97;;;2.90;;
7833;SDS011;3962;42.696;23.354;2023-05-29T09:03:16;6.93;;;2.93;;
7833;SDS011;3962;42.696;23.354;2023-05-29T09:05:45;4.03;;;2.70;;
7833;SDS011;3962;42.696;23.354;2023-05-29T09:08:13;4.77;;;3.57;;
7833;SDS011;3962;42.696;23.354;2023-05-29T09:10:42;3.83;;;3.20;;
7833;SDS011;3962;42.696;23.354;2023-05-29T09:13:10;3.47;;;3.17;;
7833;SDS011;3962;42.696;23.354;2023-05-29T09:15:38;5.13;;;3.20;;
7833;SDS011;3962;42.696;23.354;2023-05-29T09:18:08;3.93;;;2.80;;
7833;SDS011;3962;42.696;23.354;2023-05-29T09:20:35;5.57;;;3.63;;
7833;SDS011;3962;42.696;23.354;2023-05-29T09:23:03;3.13;;;2.83;;
7833;SDS011;3962;42.696;23.354;2023-05-29T09:25:31;8.07;;;3.50;;
7833;SDS011;3962;42.696;23.354;2023-05-29T09:28:03;5.27;;;3.37;;
7833;SDS011;3962;42.696;23.354;2023-05-29T09:30:34;4.17;;;2.90;;
7833;SDS011;3962;42.696;23.354;2023-05-29T09:33:02;4.57;;;3.23;;
7833;SDS011;3962;42.696;23.354;2023-05-29T09:35:34;6.43;;;4.80;;
7833;SDS011;3962;42.696;23.354;2023-05-29T09:38:01;4.50;;;3.33;;
7833;SDS011;3962;42.696;23.354;2023-05-29T09:40:32;3.43;;;2.97;;
7833;SDS011;3962;42.696;23.354;2023-05-29T09:43:04;4.30;;;3.77;;
7833;SDS011;3962;42.696;23.354;2023-05-29T09:45:32;4.20;;;3.80;;
7833;SDS011;3962;42.696;23.354;2023-05-29T09:48:03;4.27;;;3.27;;
7833;SDS011;3962;42.696;23.354;2023-05-29T09:50:31;5.67;;;3.30;;
7833;SDS011;3962;42.696;23.354;2023-05-29T09:52:59;4.80;;;3.73;;
7833;SDS011;3962;42.696;23.354;2023-05-29T09:55:26;6.20;;;4.33;;
7833;SDS011;3962;42.696;23.354;2023-05-29T09:57:55;4.93;;;3.30;;
7833;SDS011;3962;42.696;23.354;2023-05-29T10:00:24;7.07;;;3.70;;
7833;SDS011;3962;42.696;23.354;2023-05-29T10:02:51;6.43;;;3.50;;
7833;SDS011;3962;42.696;23.354;2023-05-29T10:05:17;4.30;;;3.10;;
7833;SDS011;3962;42.696;23.354;2023-05-29T10:07:46;3.80;;;3.30;;
7833;SDS011;3962;42.696;23.354;2023-05-29T10:10:20;4.33;;;2.80;;
7833;SDS011;3962;42.696;23.354;2023-05-29T10:12:49;3.97;;;3.10;;
7833;SDS011;3962;42.696;23.354;2023-05-29T10:15:17;8.87;;;3.73;;
7833;SDS011;3962;42.696;23.354;2023-05-29T10:17:51;8.33;;;4.30;;
7833;SDS011;3962;42.696;23.354;2023-05-29T10:20:22;4.30;;;3.00;;
7833;SDS011;3962;42.696;23.354;2023-05-29T10:22:51;5.37;;;3.53;;
7833;SDS011;3962;42.696;23.354;2023-05-29T10:25:20;7.83;;;3.37;;
7833;SDS011;3962;42.696;23.354;2023-05-29T10:27:47;5.67;;;3.97;;
7833;SDS011;3962;42.696;23.354;2023-05-29T10:30:17;5.97;;;3.37;;
7833;SDS011;3962;42.696;23.354;2023-05-29T10:33:02;4.50;;;3.20;;
7833;SDS011;3962;42.696;23.354;2023-05-29T10:35:37;7.43;;;3.07;;
7833;SDS011;3962;42.696;23.354;2023-05-29T10:38:11;5.37;;;3.20;;
7833;SDS011;3962;42.696;23.354;2023-05-29T10:40:41;6.60;;;3.17;;
7833;SDS011;3962;42.696;23.354;2023-05-29T10:43:09;4.03;;;3.30;;
7833;SDS011;3962;42.696;23.354;2023-05-29T10:45:56;3.70;;;3.30;;
7833;SDS011;3962;42.696;23.354;2023-05-29T10:48:38;6.57;;;3.80;;
7833;SDS011;3962;42.696;23.354;2023-05-29T10:51:06;5.30;;;3.87;;
7833;SDS011;3962;42.696;23.354;2023-05-29T10:53:34;6.37;;;3.77;;
7833;SDS011;3962;42.696;23.354;2023-05-29T10:56:07;5.03;;;3.80;;
7833;SDS011;3962;42.696;23.354;2023-05-29T10:58:36;3.37;;;3.03;;
7833;SDS011;3962;42.696;23.354;2023-05-29T11:01:04;5.60;;;3.63;;
7833;SDS011;3962;42.696;23.354;2023-05-29T11:03:31;5.07;;;3.20;;
7833;SDS011;3962;42.696;23.354;2023-05-29T11:06:00;5.07;;;3.43;;
7833;SDS011;3962;42.696;23.354;2023-05-29T11:08:32;5.57;;;4.30;;
7833;SDS011;3962;42.696;23.354;2023-05-29T11:10:59;6.10;;;3.40;;
7833;SDS011;3962;42.696;23.354;2023-05-29T11:13:27;4.80;;;3.03;;
7833;SDS011;3962;42.696;23.354;2023-05-29T11:16:12;9.60;;;4.50;;
7833;SDS011;3962;42.696;23.354;2023-05-29T11:18:41;4.67;;;3.20;;
7833;SDS011;3962;42.696;23.354;2023-05-29T11:21:21;5.17;;;3.40;;
7833;SDS011;3962;42.696;23.354;2023-05-29T11:23:50;4.97;;;3.27;;
7833;SDS011;3962;42.696;23.354;2023-05-29T11:26:19;4.53;;;3.13;;
7833;SDS011;3962;42.696;23.354;2023-05-29T11:28:47;3.67;;;2.73;;
7833;SDS011;3962;42.696;23.354;2023-05-29T11:31:13;3.33;;;2.83;;
7833;SDS011;3962;42.696;23.354;2023-05-29T11:33:46;5.00;;;3.40;;
7833;SDS011;3962;42.696;23.354;2023-05-29T11:36:16;5.93;;;3.40;;
7833;SDS011;3962;42.696;23.354;2023-05-29T11:38:45;9.23;;;3.57;;
7833;SDS011;3962;42.696;23.354;2023-05-29T11:41:12;4.60;;;2.97;;
7833;SDS011;3962;42.696;23.354;2023-05-29T11:43:39;4.20;;;2.70;;
7833;SDS011;3962;42.696;23.354;2023-05-29T11:46:16;3.93;;;3.33;;
7833;SDS011;3962;42.696;23.354;2023-05-29T11:48:45;6.90;;;3.50;;
7833;SDS011;3962;42.696;23.354;2023-05-29T11:51:12;3.50;;;2.93;;
7833;SDS011;3962;42.696;23.354;2023-05-29T11:53:39;7.07;;;3.50;;
7833;SDS011;3962;42.696;23.354;2023-05-29T11:56:09;7.27;;;3.73;;
7833;SDS011;3962;42.696;23.354;2023-05-29T11:58:36;6.17;;;3.50;;
7833;SDS011;3962;42.696;23.354;2023-05-29T12:01:04;6.47;;;3.57;;
7833;SDS011;3962;42.696;23.354;2023-05-29T12:03:31;5.30;;;3.20;;
7833;SDS011;3962;42.696;23.354;2023-05-29T12:06:04;4.23;;;3.50;;
7833;SDS011;3962;42.696;23.354;2023-05-29T12:08:31;6.90;;;3.90;;
7833;SDS011;3962;42.696;23.354;2023-05-29T12:10:58;5.03;;;3.70;;
7833;SDS011;3962;42.696;23.354;2023-05-29T12:13:27;10.67;;;5.03;;
7833;SDS011;3962;42.696;23.354;2023-05-29T12:15:54;8.17;;;4.47;;
7833;SDS011;3962;42.696;23.354;2023-05-29T12:18:23;6.47;;;4.00;;
7833;SDS011;3962;42.696;23.354;2023-05-29T12:20:51;7.13;;;3.20;;
7833;SDS011;3962;42.696;23.354;2023-05-29T12:23:23;6.33;;;4.13;;
7833;SDS011;3962;42.696;23.354;2023-05-29T12:25:50;4.40;;;3.77;;
7833;SDS011;3962;42.696;23.354;2023-05-29T12:28:17;7.83;;;4.03;;
7833;SDS011;3962;42.696;23.354;2023-05-29T12:30:46;4.53;;;3.33;;
7833;SDS011;3962;42.696;23.354;2023-05-29T12:33:24;5.13;;;3.50;;
7833;SDS011;3962;42.696;23.354;2023-05-29T12:35:53;5.17;;;3.80;;
7833;SDS011;3962;42.696;23.354;2023-05-29T12:38:20;7.10;;;3.40;;
7833;SDS011;3962;42.696;23.354;2023-05-29T12:40:48;6.77;;;3.50;;
7833;SDS011;3962;42.696;23.354;2023-05-29T12:43:16;4.83;;;3.17;;
7833;SDS011;3962;42.696;23.354;2023-05-29T12:45:43;8.47;;;4.30;;
7833;SDS011;3962;42.696;23.354;2023-05-29T12:48:11;5.83;;;4.07;;
7833;SDS011;3962;42.696;23.354;2023-05-29T12:50:38;7.40;;;3.93;;
7833;SDS011;3962;42.696;23.354;2023-05-29T12:53:06;6.07;;;3.63;;
7833;SDS011;3962;42.696;23.354;2023-05-29T12:55:35;7.37;;;3.67;;
7833;SDS011;3962;42.696;23.354;2023-05-29T12:58:03;11.43;;;4.20;;
7833;SDS011;3962;42.696;23.354;2023-05-29T13:00:31;6.13;;;3.93;;
7833;SDS011;3962;42.696;23.354;2023-05-29T13:02:59;5.77;;;4.60;;
7833;SDS011;3962;42.696;23.354;2023-05-29T13:05:28;7.00;;;4.37;;
7833;SDS011;3962;42.696;23.354;2023-05-29T13:07:56;5.00;;;3.43;;
7833;SDS011;3962;42.696;23.354;2023-05-29T13:10:24;6.83;;;4.33;;
7833;SDS011;3962;42.696;23.354;2023-05-29T13:12:51;4.30;;;3.90;;
7833;SDS011;3962;42.696;23.354;2023-05-29T13:15:20;5.00;;;4.27;;
7833;SDS011;3962;42.696;23.354;2023-05-29T13:17:48;5.27;;;4.00;;
7833;SDS011;3962;42.696;23.354;2023-05-29T13:20:15;6.07;;;4.17;;
7833;SDS011;3962;42.696;23.354;2023-05-29T13:22:45;7.43;;;3.90;;
7833;SDS011;3962;42.696;23.354;2023-05-29T13:25:14;5.50;;;3.90;;
7833;SDS011;3962;42.696;23.354;2023-05-29T13:27:44;4.03;;;3.50;;
7833;SDS011;3962;42.696;23.354;2023-05-29T13:30:12;7.13;;;3.67;;
7833;SDS011;3962;42.696;23.354;2023-05-29T13:32:40;4.53;;;3.00;;
7833;SDS011;3962;42.696;23.354;2023-05-29T13:35:08;6.50;;;3.40;;
7833;SDS011;3962;42.696;23.354;2023-05-29T13:37:35;6.13;;;2.90;;
7833;SDS011;3962;42.696;23.354;2023-05-29T13:40:05;5.43;;;3.23;;
7833;SDS011;3962;42.696;23.354;2023-05-29T13:42:34;3.60;;;2.97;;
7833;SDS011;3962;42.696;23.354;2023-05-29T13:45:01;4.87;;;2.80;;
7833;SDS011;3962;42.696;23.354;2023-05-29T13:47:29;12.27;;;3.20;;
7833;SDS011;3962;42.696;23.354;2023-05-29T13:49:57;6.77;;;3.23;;
7833;SDS011;3962;42.696;23.354;2023-05-29T13:52:24;4.40;;;2.27;;
7833;SDS011;3962;42.696;23.354;2023-05-29T13:54:51;2.77;;;2.00;;
7833;SDS011;3962;42.696;23.354;2023-05-29T13:57:19;4.07;;;2.50;;
7833;SDS011;3962;42.696;23.354;2023-05-29T13:59:46;2.20;;;1.80;;
7833;SDS011;3962;42.696;23.354;2023-05-29T14:02:13;1.90;;;1.47;;
7833;SDS011;3962;42.696;23.354;2023-05-29T14:04:40;2.87;;;2.00;;
7833;SDS011;3962;42.696;23.354;2023-05-29T14:07:08;5.67;;;1.90;;
7833;SDS011;3962;42.696;23.354;2023-05-29T14:09:35;4.10;;;2.20;;
7833;SDS011;3962;42.696;23.354;2023-05-29T14:12:02;2.70;;;2.23;;
7833;SDS011;3962;42.696;23.354;2023-05-29T14:14:32;3.57;;;2.10;;
7833;SDS011;3962;42.696;23.354;2023-05-29T14:17:03;4.10;;;2.53;;
7833;SDS011;3962;42.696;23.354;2023-05-29T14:19:30;3.03;;;2.43;;
7833;SDS011;3962;42.696;23.354;2023-05-29T14:21:57;6.23;;;2.60;;
7833;SDS011;3962;42.696;23.354;2023-05-29T14:24:24;2.67;;;2.40;;
7833;SDS011;3962;42.696;23.354;2023-05-29T14:26:51;2.20;;;2.00;;
7833;SDS011;3962;42.696;23.354;2023-05-29T14:29:18;3.97;;;3.03;;
7833;SDS011;3962;42.696;23.354;2023-05-29T14:31:46;4.93;;;2.43;;
7833;SDS011;3962;42.696;23.354;2023-05-29T14:34:13;4.43;;;2.80;;
7833;SDS011;3962;42.696;23.354;2023-05-29T14:36:40;2.80;;;2.50;;
7833;SDS011;3962;42.696;23.354;2023-05-29T14:39:09;2.77;;;2.10;;
7833;SDS011;3962;42.696;23.354;2023-05-29T14:41:36;10.53;;;2.53;;
7833;SDS011;3962;42.696;23.354;2023-05-29T14:44:03;4.60;;;2.77;;
7833;SDS011;3962;42.696;23.354;2023-05-29T14:46:30;2.70;;;2.33;;
7833;SDS011;3962;42.696;23.354;2023-05-29T14:48:59;3.40;;;2.53;;
7833;SDS011;3962;42.696;23.354;2023-05-29T14:51:26;2.40;;;2.00;;
7833;SDS011;3962;42.696;23.354;2023-05-29T14:53:54;3.50;;;2.30;;
7833;SDS011;3962;42.696;23.354;2023-05-29T14:56:21;4.13;;;2.43;;
7833;SDS011;3962;42.696;23.354;2023-05-29T14:58:48;3.13;;;2.77;;
7833;SDS011;3962;42.696;23.354;2023-05-29T15:01:15;6.07;;;2.40;;
7833;SDS011;3962;42.696;23.354;2023-05-29T15:03:42;9.87;;;3.73;;
7833;SDS011;3962;42.696;23.354;2023-05-29T15:06:10;2.80;;;1.90;;
7833;SDS011;3962;42.696;23.354;2023-05-29T15:08:38;6.80;;;4.10;;
7833;SDS011;3962;42.696;23.354;2023-05-29T15:11:06;15.57;;;10.30;;
7833;SDS011;3962;42.696;23.354;2023-05-29T15:13:34;10.33;;;4.40;;
7833;SDS011;3962;42.696;23.354;2023-05-29T15:16:01;10.90;;;3.47;;
7833;SDS011;3962;42.696;23.354;2023-05-29T15:18:29;3.97;;;3.20;;
7833;SDS011;3962;42.696;23.354;2023-05-29T15:20:56;6.10;;;3.40;;
7833;SDS011;3962;42.696;23.354;2023-05-29T15:23:24;5.53;;;3.30;;
7833;SDS011;3962;42.696;23.354;2023-05-29T15:25:51;4.40;;;3.07;;
7833;SDS011;3962;42.696;23.354;2023-05-29T15:28:19;6.53;;;3.57;;
7833;SDS011;3962;42.696;23.354;2023-05-29T15:30:45;6.70;;;3.17;;
7833;SDS011;3962;42.696;23.354;2023-05-29T15:33:12;4.63;;;3.07;;
7833;SDS011;3962;42.696;23.354;2023-05-29T15:35:39;6.60;;;3.43;;
7833;SDS011;3962;42.696;23.354;2023-05-29T15:38:08;3.63;;;2.90;;
7833;SDS011;3962;42.696;23.354;2023-05-29T15:40:36;7.83;;;3.53;;
7833;SDS011;3962;42.696;23.354;2023-05-29T15:43:03;6.00;;;3.20;;
7833;SDS011;3962;42.696;23.354;2023-05-29T15:45:30;3.93;;;2.80;;
7833;SDS011;3962;42.696;23.354;2023-05-29T15:47:57;6.30;;;3.50;;
7833;SDS011;3962;42.696;23.354;2023-05-29T15:50:23;3.30;;;3.00;;
7833;SDS011;3962;42.696;23.354;2023-05-29T15:52:50;3.70;;;3.30;;
7833;SDS011;3962;42.696;23.354;2023-05-29T15:55:17;5.93;;;3.77;;
7833;SDS011;3962;42.696;23.354;2023-05-29T15:57:45;5.63;;;4.00;;
7833;SDS011;3962;42.696;23.354;2023-05-29T16:00:13;7.17;;;3.80;;
7833;SDS011;3962;42.696;23.354;2023-05-29T16:02:41;4.80;;;4.10;;
7833;SDS011;3962;42.696;23.354;2023-05-29T16:05:08;8.57;;;4.10;;
7833;SDS011;3962;42.696;23.354;2023-05-29T16:07:35;9.87;;;4.40;;
7833;SDS011;3962;42.696;23.354;2023-05-29T16:10:03;10.87;;;6.67;;
7833;SDS011;3962;42.696;23.354;2023-05-29T16:12:30;8.27;;;4.87;;
7833;SDS011;3962;42.696;23.354;2023-05-29T16:14:58;5.33;;;4.43;;